Time;durP1;ratioP1;P1;durP2;ratioP2;P2;SDS_P1;SDS_P2;PMS_P1;PMS_P2;Temp;Humidity;BMP_temperature;BMP_pressure;BME280_temperature;BME280_humidity;BME280_pressure;Samples;Min_cycle;Max_cycle;Signal;HPM_P1;HPM_P2
2021/05/10 00:03:41;;;;;;;30.95;10.55;;;15.50;99.90;;;;;;10317779;28;20056;-65
2021/05/10 00:08:43;;;;;;;20.27;8.00;;;15.60;99.90;;;;;;10316851;28;20773;-63
2021/05/10 00:13:47;;;;;;;12.88;6.97;;;15.50;99.90;;;;;;10320372;28;20102;-64
2021/05/10 00:18:49;;;;;;;18.55;7.47;;;15.40;99.90;;;;;;10311143;28;20453;-66
2021/05/10 00:23:51;;;;;;;16.80;8.27;;;15.90;99.90;;;;;;10311043;28;20182;-65
2021/05/10 00:28:52;;;;;;;16.27;8.23;;;15.20;99.90;;;;;;10306881;28;20518;-66
2021/05/10 00:33:54;;;;;;;15.70;8.23;;;15.20;99.90;;;;;;10306083;28;20053;-65
2021/05/10 00:38:56;;;;;;;24.60;9.55;;;15.20;99.90;;;;;;10319651;28;20061;-66
2021/05/10 00:43:57;;;;;;;16.30;8.75;;;15.20;99.90;;;;;;10320310;28;20051;-65
2021/05/10 00:48:59;;;;;;;16.45;7.97;;;15.30;99.90;;;;;;10320936;28;20104;-65
2021/05/10 00:54:01;;;;;;;18.52;8.50;;;14.10;99.90;;;;;;10324195;28;21022;-67
2021/05/10 00:59:03;;;;;;;15.32;7.85;;;15.30;99.90;;;;;;10324884;28;20056;-65
2021/05/10 01:04:05;;;;;;;23.77;7.20;;;15.30;99.90;;;;;;10322463;28;20210;-65
2021/05/10 01:09:07;;;;;;;16.02;6.43;;;15.30;99.90;;;;;;10319547;28;20057;-64
2021/05/10 01:14:09;;;;;;;15.00;6.28;;;15.30;99.90;;;;;;10322371;28;20052;-64
2021/05/10 01:19:11;;;;;;;18.25;6.53;;;15.30;99.90;;;;;;10321405;28;21184;-64
2021/05/10 01:24:13;;;;;;;9.38;5.72;;;15.30;99.90;;;;;;10321909;28;20064;-64
2021/05/10 01:29:15;;;;;;;;;;;15.40;99.90;;;;;;10321500;28;20064;-65
2021/05/10 01:34:17;;;;;;;13.48;5.55;;;15.40;99.90;;;;;;10320997;28;19935;-65
2021/05/10 01:39:19;;;;;;;10.95;5.75;;;15.40;99.90;;;;;;10316185;28;20142;-64
2021/05/10 01:44:20;;;;;;;14.73;6.05;;;15.50;99.90;;;;;;10324761;28;20199;-64
2021/05/10 01:49:21;;;;;;;15.07;6.22;;;15.70;99.90;;;;;;10322871;28;20052;-64
2021/05/10 01:54:24;;;;;;;15.90;6.40;;;15.50;99.90;;;;;;10325055;28;20056;-63
2021/05/10 01:59:25;;;;;;;17.48;8.60;;;15.40;99.90;;;;;;10323964;28;20292;-64
2021/05/10 02:04:26;;;;;;;19.52;9.10;;;15.40;99.90;;;;;;10326839;28;21144;-64
2021/05/10 02:09:28;;;;;;;24.23;9.90;;;15.40;99.90;;;;;;10328339;28;20433;-64
2021/05/10 02:14:31;;;;;;;21.50;9.63;;;15.30;99.90;;;;;;10326979;28;20049;-64
2021/05/10 02:19:34;;;;;;;27.50;10.85;;;15.30;99.90;;;;;;10327390;28;20056;-64
2021/05/10 02:24:37;;;;;;;29.73;11.40;;;15.40;99.90;;;;;;10326063;28;20079;-63
2021/05/10 02:29:39;;;;;;;22.00;12.23;;;15.30;99.90;;;;;;10320753;28;20103;-64
2021/05/10 02:34:40;;;;;;;26.83;11.98;;;15.30;99.90;;;;;;10327702;28;20056;-63
2021/05/10 02:39:43;;;;;;;27.67;12.60;;;15.20;99.90;;;;;;10329918;28;21955;-64
2021/05/10 02:44:44;;;;;;;27.30;13.07;;;15.20;99.90;;;;;;10326914;28;21421;-63
2021/05/10 02:49:45;;;;;;;21.38;11.15;;;15.20;99.90;;;;;;10317261;28;20060;-63
2021/05/10 02:54:48;;;;;;;25.88;12.43;;;15.30;99.90;;;;;;10311486;28;20766;-63
2021/05/10 02:59:49;;;;;;;30.40;12.82;;;15.20;99.90;;;;;;10326333;28;21065;-64
2021/05/10 03:04:51;;;;;;;27.08;12.43;;;15.30;99.90;;;;;;10320847;28;20068;-63
2021/05/10 03:09:53;;;;;;;25.20;11.35;;;15.20;99.90;;;;;;10323226;28;20953;-64
2021/05/10 03:14:54;;;;;;;25.92;11.18;;;15.20;99.90;;;;;;10326093;28;20570;-63
2021/05/10 03:19:56;;;;;;;24.05;10.15;;;15.20;99.90;;;;;;10317273;28;20760;-63
2021/05/10 03:24:58;;;;;;;22.52;9.50;;;15.20;99.90;;;;;;10321339;28;20057;-64
2021/05/10 03:30:00;;;;;;;19.58;9.15;;;15.20;99.90;;;;;;10328864;28;20037;-63
2021/05/10 03:35:01;;;;;;;23.83;10.75;;;15.20;99.90;;;;;;10317375;28;20060;-64
2021/05/10 03:40:04;;;;;;;17.42;8.45;;;15.20;99.90;;;;;;10324716;28;20049;-64
2021/05/10 03:45:07;;;;;;;20.83;9.35;;;15.20;99.90;;;;;;10314738;28;20723;-63
2021/05/10 03:50:10;;;;;;;18.85;8.63;;;15.20;99.90;;;;;;10319192;28;20765;-63
2021/05/10 03:55:14;;;;;;;;;;;15.20;99.90;;;;;;10325106;28;20587;-63
2021/05/10 04:00:18;;;;;;;19.48;10.32;;;15.20;99.90;;;;;;10325021;28;19932;-63
2021/05/10 04:05:33;;;;;;;21.83;10.38;;;15.20;99.90;;;;;;10324114;28;20061;-63
2021/05/10 04:10:43;;;;;;;20.23;9.40;;;15.20;99.90;;;;;;10325402;28;20053;-62
2021/05/10 04:15:45;;;;;;;18.48;9.85;;;15.20;99.90;;;;;;10328919;28;20060;-63
2021/05/10 04:20:46;;;;;;;20.23;10.20;;;15.50;99.90;;;;;;10323983;28;20784;-63
2021/05/10 04:25:51;;;;;;;26.90;10.43;;;15.10;99.90;;;;;;10316880;28;20095;-63
2021/05/10 04:30:55;;;;;;;25.83;9.18;;;14.70;99.90;;;;;;10324510;28;20572;-62
2021/05/10 04:35:57;;;;;;;25.80;6.07;;;14.50;99.90;;;;;;10320000;28;20195;-62
2021/05/10 04:40:59;;;;;;;13.75;3.63;;;14.30;99.90;;;;;;10321738;28;21783;-62
2021/05/10 04:46:00;;;;;;;23.27;4.55;;;14.00;99.90;;;;;;10324963;28;20049;-62
2021/05/10 04:51:02;;;;;;;32.00;4.45;;;13.80;99.90;;;;;;10321565;28;21361;-62
2021/05/10 04:56:04;;;;;;;16.23;3.72;;;13.70;99.90;;;;;;10323812;28;20072;-63
2021/05/10 05:01:06;;;;;;;14.32;2.28;;;13.60;99.90;;;;;;10325305;28;20053;-62
2021/05/10 05:06:07;;;;;;;6.38;1.88;;;13.60;99.90;;;;;;10318998;28;20088;-62
2021/05/10 05:11:10;;;;;;;10.02;2.22;;;13.50;99.90;;;;;;10307898;28;20167;-63
2021/05/10 05:16:11;;;;;;;6.10;2.08;;;13.40;99.90;;;;;;10317601;28;21220;-62
2021/05/10 05:21:12;;;;;;;16.75;3.63;;;13.50;99.90;;;;;;10312138;28;20060;-63
2021/05/10 05:26:14;;;;;;;17.63;3.30;;;13.60;99.90;;;;;;10319760;28;20155;-65
2021/05/10 05:31:16;;;;;;;17.60;4.40;;;13.60;99.90;;;;;;10319150;28;20713;-63
2021/05/10 05:36:17;;;;;;;10.18;3.30;;;13.60;99.90;;;;;;10325216;28;20052;-66
2021/05/10 05:41:19;;;;;;;8.90;3.15;;;13.70;99.90;;;;;;10319539;28;20053;-64
2021/05/10 05:46:26;;;;;;;7.80;2.93;;;13.70;99.90;;;;;;10316586;28;20149;-62
2021/05/10 05:51:27;;;;;;;4.80;1.95;;;13.70;99.90;;;;;;10310349;28;20491;-63
2021/05/10 05:56:31;;;;;;;9.30;3.78;;;13.50;99.90;;;;;;10328043;28;20060;-65
2021/05/10 06:01:32;;;;;;;4.80;2.97;;;13.30;99.90;;;;;;10329727;28;20429;-62
2021/05/10 06:06:34;;;;;;;6.22;3.33;;;13.30;99.90;;;;;;10329420;28;20733;-64
2021/05/10 06:11:36;;;;;;;9.57;4.68;;;13.50;99.90;;;;;;10327921;28;20829;-63
2021/05/10 06:16:38;;;;;;;14.65;4.68;;;13.80;99.90;;;;;;10332604;28;20056;-64
2021/05/10 06:21:41;;;;;;;13.23;6.65;;;14.10;99.90;;;;;;10333573;28;20060;-64
2021/05/10 06:26:44;;;;;;;9.07;6.20;;;14.20;99.90;;;;;;10339653;28;20053;-64
2021/05/10 06:31:45;;;;;;;10.95;5.20;;;14.10;99.90;;;;;;10335315;28;20059;-64
2021/05/10 06:36:47;;;;;;;12.75;5.13;;;14.20;99.90;;;;;;10333014;28;20118;-63
2021/05/10 06:41:49;;;;;;;15.27;4.55;;;14.20;99.90;;;;;;10331348;28;20061;-62
2021/05/10 06:46:51;;;;;;;25.55;2.15;;;14.10;99.90;;;;;;10334407;28;20068;-61
2021/05/10 06:51:53;;;;;;;18.67;2.90;;;14.00;99.90;;;;;;10331343;28;20134;-62
2021/05/10 06:56:55;;;;;;;32.10;4.82;;;13.60;99.90;;;;;;10330909;28;20480;-62
2021/05/10 07:01:56;;;;;;;38.22;4.18;;;13.70;99.90;;;;;;10330111;28;21373;-62
2021/05/10 07:06:58;;;;;;;30.85;4.95;;;13.80;99.90;;;;;;10331168;28;20052;-62
2021/05/10 07:12:00;;;;;;;23.40;5.32;;;13.40;99.90;;;;;;10331217;28;21108;-62
2021/05/10 07:17:01;;;;;;;24.83;5.47;;;13.00;99.90;;;;;;10332183;28;20089;-63
2021/05/10 07:22:03;;;;;;;24.83;5.78;;;12.90;99.90;;;;;;10329973;28;20053;-63
2021/05/10 07:27:06;;;;;;;24.17;6.57;;;13.30;99.90;;;;;;10331911;28;20053;-62
2021/05/10 07:32:07;;;;;;;25.45;5.43;;;13.50;99.90;;;;;;10330568;28;20061;-65
2021/05/10 07:37:08;;;;;;;26.50;5.55;;;16.00;99.90;;;;;;10325767;28;21751;-63
2021/05/10 07:42:11;;;;;;;21.65;5.07;;;18.00;99.90;;;;;;10326121;28;20088;-63
2021/05/10 07:47:12;;;;;;;26.98;4.65;;;19.40;99.90;;;;;;10325178;28;20053;-64
2021/05/10 07:52:14;;;;;;;27.17;5.03;;;19.10;99.90;;;;;;10326020;28;21350;-64
2021/05/10 07:57:16;;;;;;;23.60;4.80;;;18.00;99.90;;;;;;10326539;28;20145;-63
2021/05/10 08:02:19;;;;;;;21.60;3.65;;;16.50;99.90;;;;;;10326571;28;20064;-64
2021/05/10 08:07:20;;;;;;;15.02;2.35;;;16.60;99.90;;;;;;10328244;28;20115;-65
2021/05/10 08:12:22;;;;;;;14.83;2.33;;;21.30;97.00;;;;;;10326912;28;20566;-64
2021/05/10 08:17:24;;;;;;;5.70;1.48;;;22.30;94.50;;;;;;10328052;28;20053;-64
2021/05/10 08:22:25;;;;;;;7.97;1.92;;;23.00;91.40;;;;;;10329124;28;20773;-63
2021/05/10 08:27:28;;;;;;;6.63;1.70;;;22.20;91.60;;;;;;10315151;28;20057;-62
2021/05/10 08:32:29;;;;;;;6.25;1.30;;;23.70;83.50;;;;;;10294087;28;20051;-63
2021/05/10 08:37:31;;;;;;;2.92;0.95;;;24.80;76.60;;;;;;10295163;28;20049;-63
2021/05/10 08:42:33;;;;;;;5.75;1.08;;;25.40;67.00;;;;;;10295219;28;20083;-62
2021/05/10 08:47:35;;;;;;;6.45;1.40;;;25.10;62.70;;;;;;10297396;28;20105;-63
2021/05/10 08:52:37;;;;;;;4.85;0.98;;;24.20;61.70;;;;;;10294526;28;20057;-63
2021/05/10 08:57:39;;;;;;;6.00;1.58;;;23.60;60.80;;;;;;10289762;28;20091;-63
2021/05/10 09:02:41;;;;;;;9.23;1.45;;;24.10;58.90;;;;;;10293094;28;21433;-63
2021/05/10 09:07:42;;;;;;;;;;;25.90;58.00;;;;;;10290581;28;20535;-64
2021/05/10 09:12:46;;;;;;;10.07;1.80;;;22.50;58.40;;;;;;10290309;28;20653;-63
2021/05/10 09:17:49;;;;;;;11.30;1.83;;;22.70;61.20;;;;;;10291665;28;20610;-64
2021/05/10 09:22:53;;;;;;;7.00;1.75;;;21.60;64.10;;;;;;10292922;28;20809;-62
2021/05/10 09:28:09;;;;;;;13.02;1.85;;;22.00;63.80;;;;;;10295568;28;20142;-63
2021/05/10 09:33:21;;;;;;;6.40;1.55;;;23.10;59.00;;;;;;10290039;28;20685;-63
2021/05/10 09:38:24;;;;;;;;;;;22.60;59.50;;;;;;10291763;28;20066;-63
2021/05/10 09:43:27;;;;;;;7.43;1.13;;;23.90;56.20;;;;;;10291514;28;19933;-63
2021/05/10 09:48:31;;;;;;;6.85;1.20;;;24.80;52.00;;;;;;10291608;28;20763;-63
2021/05/10 09:53:38;;;;;;;6.38;1.30;;;23.90;54.30;;;;;;10293248;28;20110;-63
2021/05/10 09:58:43;;;;;;;8.10;1.33;;;22.50;57.60;;;;;;10291975;28;20141;-62
2021/05/10 10:03:45;;;;;;;6.30;1.30;;;21.70;59.50;;;;;;10294225;28;20743;-63
2021/05/10 10:08:48;;;;;;;11.25;1.42;;;21.40;61.60;;;;;;10291269;28;20044;-63
2021/05/10 10:13:52;;;;;;;9.80;1.38;;;21.90;61.10;;;;;;10299601;28;20053;-62
2021/05/10 10:18:55;;;;;;;8.32;1.20;;;23.20;56.60;;;;;;10290731;28;20049;-63
2021/05/10 10:24:01;;;;;;;6.40;1.90;;;24.20;52.70;;;;;;10295208;28;20203;-63
2021/05/10 10:29:07;;;;;;;8.10;1.77;;;24.90;52.40;;;;;;10296004;28;20060;-63
2021/05/10 10:34:13;;;;;;;6.13;1.63;;;26.40;51.90;;;;;;10294297;28;20061;-63
2021/05/10 10:39:17;;;;;;;5.95;1.40;;;25.50;48.90;;;;;;10295300;28;21241;-64
2021/05/10 10:44:31;;;;;;;6.10;1.65;;;26.60;46.10;;;;;;10298288;28;20088;-63
2021/05/10 10:49:34;;;;;;;14.50;1.92;;;26.50;45.80;;;;;;10299023;28;20080;-64
2021/05/10 10:54:36;;;;;;;6.40;1.65;;;26.90;44.80;;;;;;10298760;28;20053;-63
2021/05/10 10:59:39;;;;;;;6.22;1.52;;;26.90;44.80;;;;;;10301878;28;20677;-63
2021/05/10 11:04:41;;;;;;;8.02;1.40;;;28.20;44.80;;;;;;10297256;28;20056;-63
2021/05/10 11:09:53;;;;;;;8.10;1.60;;;26.00;44.80;;;;;;10322236;28;20056;-64
2021/05/10 11:14:55;;;;;;;4.35;1.60;;;23.90;47.80;;;;;;10329467;28;20095;-64
2021/05/10 11:20:09;;;;;;;8.20;1.88;;;23.30;52.60;;;;;;10328160;28;20843;-64
2021/05/10 11:25:35;;;;;;;4.85;1.50;;;24.50;50.90;;;;;;10329901;28;20064;-63
2021/05/10 11:30:58;;;;;;;4.10;1.20;;;25.60;47.50;;;;;;10328286;28;20057;-63
2021/05/10 11:36:00;;;;;;;5.80;1.60;;;25.00;47.10;;;;;;10322444;28;20129;-64
2021/05/10 11:41:02;;;;;;;8.15;1.30;;;25.10;48.40;;;;;;10330149;28;21232;-63
2021/05/10 11:46:04;;;;;;;11.02;2.20;;;25.90;47.60;;;;;;10329179;28;20080;-64
2021/05/10 11:51:18;;;;;;;10.07;1.80;;;25.70;46.70;;;;;;10326695;28;20060;-64
2021/05/10 11:56:25;;;;;;;9.88;1.80;;;24.30;48.40;;;;;;10329111;28;20125;-63
2021/05/10 12:01:40;;;;;;;11.02;2.30;;;22.90;52.00;;;;;;10327738;28;20075;-64
2021/05/10 12:06:41;;;;;;;9.50;1.85;;;21.90;56.10;;;;;;10328506;28;20051;-64
2021/05/10 12:11:43;;;;;;;8.45;2.10;;;22.30;56.00;;;;;;10325206;28;20085;-64
2021/05/10 12:17:18;;;;;;;10.00;2.40;;;23.40;53.40;;;;;;10327072;28;20053;-63
2021/05/10 12:22:21;;;;;;;12.05;2.25;;;24.50;51.60;;;;;;10160951;28;21264;-63
2021/05/10 12:27:25;;;;;;;9.93;2.78;;;25.40;49.70;;;;;;10285354;28;20059;-64
2021/05/10 12:32:27;;;;;;;12.00;2.53;;;25.40;49.40;;;;;;10326427;28;20053;-65
2021/05/10 12:37:28;;;;;;;6.25;1.63;;;25.70;48.40;;;;;;10327761;28;20053;-64
2021/05/10 12:42:30;;;;;;;10.30;1.63;;;25.90;47.40;;;;;;10329660;28;20467;-63
2021/05/10 12:47:48;;;;;;;;;;;25.80;46.10;;;;;;10327736;28;20057;-62
2021/05/10 12:52:51;;;;;;;7.85;2.38;;;25.90;45.20;;;;;;10327485;28;19929;-62
2021/05/10 12:57:52;;;;;;;9.30;1.95;;;26.30;44.70;;;;;;10326458;28;20118;-61
2021/05/10 13:02:55;;;;;;;8.98;2.15;;;26.00;45.00;;;;;;10327576;28;20072;-61
2021/05/10 13:07:57;;;;;;;8.63;2.28;;;25.20;46.10;;;;;;10326429;28;20797;-63
2021/05/10 13:13:01;;;;;;;9.48;2.05;;;24.10;47.70;;;;;;10327783;28;20811;-62
2021/05/10 13:34:28;;;;;;;12.48;2.13;;;22.90;51.00;;;;;;10327010;28;20045;-63
2021/05/10 13:39:30;;;;;;;11.75;1.73;;;22.90;51.00;;;;;;10330093;28;20712;-63
2021/05/10 13:44:31;;;;;;;6.25;1.75;;;23.10;49.20;;;;;;10326994;28;20049;-60
2021/05/10 13:49:35;;;;;;;8.95;1.88;;;23.20;49.00;;;;;;10330890;28;20060;-63
2021/05/10 13:54:36;;;;;;;12.52;1.80;;;23.30;49.00;;;;;;10328583;28;20152;-63
2021/05/10 13:59:38;;;;;;;15.48;2.03;;;23.90;48.10;;;;;;10327035;28;20052;-62
2021/05/10 14:04:40;;;;;;;7.03;1.70;;;24.20;48.00;;;;;;10326593;28;20096;-62
2021/05/10 14:09:46;;;;;;;9.93;2.00;;;24.70;46.70;;;;;;10331419;28;20063;-63
2021/05/10 14:14:54;;;;;;;8.73;1.35;;;25.20;43.30;;;;;;10339236;28;20572;-63
2021/05/10 14:20:00;;;;;;;6.35;1.45;;;24.80;43.20;;;;;;10349912;28;20452;-63
2021/05/10 14:25:03;;;;;;;11.90;1.70;;;24.30;43.90;;;;;;10349249;28;20108;-60
2021/05/10 14:30:06;;;;;;;7.20;1.45;;;23.10;45.60;;;;;;10347150;28;20083;-63
2021/05/10 14:35:10;;;;;;;9.15;2.00;;;22.10;47.40;;;;;;10348983;28;20399;-62
2021/05/10 14:40:13;;;;;;;9.43;1.67;;;21.70;49.90;;;;;;10348642;28;20143;-61
2021/05/10 14:45:16;;;;;;;8.07;1.73;;;21.40;50.10;;;;;;10356664;28;20094;-61
2021/05/10 14:50:22;;;;;;;13.23;1.15;;;22.10;48.60;;;;;;10350171;28;20053;-62
2021/05/10 14:55:26;;;;;;;8.93;1.70;;;22.00;48.60;;;;;;10351887;28;20053;-61
2021/05/10 15:00:28;;;;;;;18.27;2.50;;;21.20;52.20;;;;;;10352778;28;20063;-62
2021/05/10 15:05:31;;;;;;;8.07;1.70;;;20.80;53.60;;;;;;10338389;28;21442;-62
2021/05/10 15:10:34;;;;;;;7.55;1.83;;;21.60;52.00;;;;;;10338158;28;20142;-62
2021/05/10 15:15:37;;;;;;;9.07;2.17;;;21.80;51.00;;;;;;10339527;28;20044;-62
2021/05/10 15:20:41;;;;;;;7.50;1.77;;;21.80;50.60;;;;;;10339388;28;20060;-62
2021/05/10 15:25:44;;;;;;;10.35;1.10;;;21.70;50.40;;;;;;10347472;28;20424;-64
2021/05/10 15:30:46;;;;;;;8.93;1.92;;;21.70;50.50;;;;;;10344826;28;20061;-63
2021/05/10 15:35:49;;;;;;;8.23;1.25;;;22.00;50.10;;;;;;10339367;28;20048;-63
2021/05/10 15:40:52;;;;;;;7.28;1.17;;;21.70;49.90;;;;;;10346613;28;20489;-63
2021/05/10 15:45:54;;;;;;;8.15;1.63;;;21.50;49.50;;;;;;10340555;28;20978;-62
2021/05/10 15:51:00;;;;;;;8.32;1.50;;;21.30;48.90;;;;;;10337282;28;20057;-63
2021/05/10 15:56:03;;;;;;;6.70;1.20;;;21.30;49.50;;;;;;10334452;28;20068;-62
2021/05/10 16:01:04;;;;;;;14.02;1.60;;;22.10;48.80;;;;;;10336540;28;20061;-63
2021/05/10 16:06:08;;;;;;;7.80;1.85;;;22.10;49.40;;;;;;10338826;28;20535;-63
2021/05/10 16:11:09;;;;;;;7.75;1.48;;;22.00;48.50;;;;;;10333717;28;20067;-63
2021/05/10 16:16:11;;;;;;;17.02;1.38;;;21.40;49.80;;;;;;10330990;28;20133;-63
2021/05/10 16:21:14;;;;;;;7.18;1.98;;;21.00;51.10;;;;;;10334126;28;20130;-63
2021/05/10 16:26:16;;;;;;;6.55;1.27;;;20.80;52.00;;;;;;10330790;28;20049;-62
2021/05/10 16:31:18;;;;;;;;;;;20.80;52.70;;;;;;10339712;28;20052;-64
2021/05/10 16:36:20;;;;;;;7.65;1.25;;;21.00;53.00;;;;;;10420733;28;19928;-62
2021/05/10 16:41:25;;;;;;;7.57;1.48;;;21.20;52.00;;;;;;10302486;28;21832;-63
2021/05/10 16:46:27;;;;;;;11.32;2.00;;;21.20;51.50;;;;;;10304602;28;21516;-62
2021/05/10 16:51:30;;;;;;;6.82;1.38;;;21.10;52.20;;;;;;10323354;28;20762;-62
2021/05/10 16:56:31;;;;;;;10.73;1.98;;;21.00;52.40;;;;;;10333115;28;20076;-62
2021/05/10 17:01:38;;;;;;;11.50;1.75;;;20.80;53.10;;;;;;10334866;28;20052;-63
2021/05/10 17:06:46;;;;;;;11.13;1.58;;;20.50;53.90;;;;;;10342181;28;20650;-63
2021/05/10 17:11:48;;;;;;;7.85;1.83;;;20.40;54.50;;;;;;10337605;28;20084;-63
2021/05/10 17:16:50;;;;;;;;;;;20.30;54.60;;;;;;10341629;28;20108;-63
2021/05/10 17:21:54;;;;;;;6.63;1.67;;;20.00;55.30;;;;;;10336411;28;20897;-63
2021/05/10 17:26:58;;;;;;;12.55;2.35;;;19.80;55.90;;;;;;10332171;28;20053;-63
2021/05/10 17:32:01;;;;;;;8.48;1.40;;;19.60;56.70;;;;;;10331217;28;20065;-63
2021/05/10 17:37:04;;;;;;;8.98;1.83;;;19.60;56.80;;;;;;10335552;28;20077;-64
2021/05/10 17:42:06;;;;;;;8.82;1.60;;;19.50;57.10;;;;;;10329148;28;21326;-63
2021/05/10 17:47:08;;;;;;;8.38;1.75;;;19.50;57.30;;;;;;10325852;28;20053;-62
2021/05/10 17:52:10;;;;;;;14.70;2.30;;;19.50;57.30;;;;;;10340805;28;20064;-62
2021/05/10 17:57:13;;;;;;;11.82;2.38;;;19.40;57.80;;;;;;10341039;28;20064;-61
2021/05/10 18:07:35;;;;;;;12.27;2.10;;;18.90;59.90;;;;;;10330559;28;21285;-63
2021/05/10 18:12:36;;;;;;;;;;;18.50;61.20;;;;;;10330729;28;20069;-61
2021/05/10 18:17:38;;;;;;;12.38;1.67;;;18.20;62.20;;;;;;10332076;28;19935;-62
2021/05/10 18:22:41;;;;;;;11.45;1.85;;;17.80;62.50;;;;;;10329073;28;20060;-62
2021/05/10 18:27:42;;;;;;;5.55;1.40;;;17.60;62.80;;;;;;10331206;28;20142;-60
2021/05/10 18:32:44;;;;;;;10.88;1.02;;;17.30;63.60;;;;;;10330194;28;20460;-62
2021/05/10 18:37:47;;;;;;;8.90;1.77;;;17.00;64.30;;;;;;10330570;28;20048;-63
2021/05/10 18:42:48;;;;;;;17.95;1.73;;;16.80;64.40;;;;;;10326203;28;20107;-61
2021/05/10 18:47:53;;;;;;;9.32;1.50;;;16.50;64.90;;;;;;10326730;28;20885;-61
2021/05/10 18:52:55;;;;;;;7.03;1.55;;;16.30;66.30;;;;;;10328405;28;20053;-58
2021/05/10 18:57:58;;;;;;;6.68;1.13;;;16.10;67.10;;;;;;10333974;28;21430;-61
2021/05/10 19:03:00;;;;;;;9.98;1.73;;;15.80;68.70;;;;;;10318947;28;20053;-60
2021/05/10 19:08:04;;;;;;;7.88;1.50;;;15.60;69.70;;;;;;10338011;28;20053;-60
2021/05/10 19:13:05;;;;;;;10.27;1.95;;;15.40;70.70;;;;;;10330552;28;20057;-62
2021/05/10 19:18:07;;;;;;;7.43;1.38;;;15.20;72.20;;;;;;10328018;28;20741;-64
2021/05/10 19:23:10;;;;;;;10.10;1.20;;;15.10;73.20;;;;;;10329387;28;20053;-62
2021/05/10 19:28:12;;;;;;;12.43;2.28;;;15.00;73.90;;;;;;10327711;28;20053;-61
2021/05/10 19:33:15;;;;;;;10.90;2.20;;;14.90;74.80;;;;;;10324907;28;20053;-62
2021/05/10 19:38:17;;;;;;;18.05;1.77;;;14.80;75.80;;;;;;10323205;28;20118;-61
2021/05/10 19:43:19;;;;;;;12.00;2.13;;;14.60;77.20;;;;;;10325232;28;20410;-62
2021/05/10 19:48:23;;;;;;;13.65;2.65;;;14.50;78.40;;;;;;10323620;28;21893;-63
2021/05/10 19:58:53;;;;;;;;;;;14.30;79.30;;;;;;10324339;28;20057;-62
2021/05/10 20:04:03;;;;;;;12.48;1.95;;;14.20;80.10;;;;;;10326129;28;19982;-62
2021/05/10 20:09:07;;;;;;;11.73;2.10;;;14.10;80.50;;;;;;10326782;28;20059;-61
2021/05/10 20:14:08;;;;;;;14.55;2.80;;;14.00;81.10;;;;;;10321240;28;20786;-63
2021/05/10 20:19:09;;;;;;;14.95;3.47;;;13.20;82.10;;;;;;10318388;28;21363;-62
2021/05/10 20:24:12;;;;;;;9.43;2.67;;;13.70;82.80;;;;;;10321024;28;20126;-62
2021/05/10 20:29:13;;;;;;;11.82;2.22;;;13.60;85.30;;;;;;10326790;28;20076;-63
2021/05/10 20:34:15;;;;;;;13.05;1.90;;;13.50;85.30;;;;;;10323453;28;20049;-63
2021/05/10 20:39:17;;;;;;;11.48;2.15;;;13.40;85.20;;;;;;10323777;28;20060;-63
2021/05/10 20:44:19;;;;;;;14.90;2.57;;;13.20;87.70;;;;;;10325369;28;20056;-63
2021/05/10 20:49:20;;;;;;;11.25;2.13;;;13.10;87.90;;;;;;10322291;28;20775;-62
2021/05/10 20:54:22;;;;;;;9.68;2.28;;;13.00;88.60;;;;;;10325925;28;20672;-63
2021/05/10 20:59:24;;;;;;;16.83;2.67;;;12.80;88.90;;;;;;10324526;28;20827;-62
2021/05/10 21:04:25;;;;;;;13.20;2.90;;;12.80;89.50;;;;;;10323762;28;20075;-63
2021/05/10 21:09:28;;;;;;;17.10;3.37;;;12.70;90.10;;;;;;10325735;28;20049;-62
2021/05/10 21:14:30;;;;;;;10.25;2.03;;;12.60;90.60;;;;;;10323193;28;20053;-62
2021/05/10 21:19:31;;;;;;;13.00;2.88;;;12.50;92.40;;;;;;10321677;28;20504;-61
2021/05/10 21:24:33;;;;;;;13.02;2.72;;;12.50;92.40;;;;;;10325066;28;21870;-62
2021/05/10 21:29:35;;;;;;;12.10;3.10;;;12.50;92.90;;;;;;10324623;28;20060;-62
2021/05/10 21:34:37;;;;;;;10.63;3.00;;;12.50;93.80;;;;;;10323741;28;20049;-62
2021/05/10 21:39:39;;;;;;;13.20;3.80;;;12.50;93.10;;;;;;10322833;28;20142;-62
2021/05/10 21:44:41;;;;;;;12.00;3.72;;;12.40;93.60;;;;;;10313050;28;20053;-62
2021/05/10 21:49:42;;;;;;;14.68;3.53;;;12.40;94.60;;;;;;10324258;28;20827;-62
2021/05/10 21:54:44;;;;;;;17.40;3.78;;;12.30;94.90;;;;;;10322210;28;21232;-62
2021/05/10 21:59:45;;;;;;;19.90;4.00;;;12.30;94.70;;;;;;10323492;28;20064;-62
2021/05/10 22:04:46;;;;;;;13.07;3.22;;;12.20;94.90;;;;;;10323795;28;20880;-62
2021/05/10 22:09:48;;;;;;;17.55;3.17;;;12.10;95.10;;;;;;10323456;28;20065;-62
2021/05/10 22:14:52;;;;;;;11.70;3.57;;;11.50;94.90;;;;;;10323188;28;20055;-61
2021/05/10 22:19:54;;;;;;;8.20;2.63;;;11.90;95.30;;;;;;10321115;28;21795;-60
2021/05/10 22:25:02;;;;;;;12.50;3.05;;;11.80;95.20;;;;;;10322149;28;20091;-61
2021/05/10 22:30:04;;;;;;;7.80;2.83;;;11.80;95.50;;;;;;10322333;28;20686;-62
2021/05/10 22:35:06;;;;;;;10.67;3.43;;;11.80;95.40;;;;;;10325168;28;20044;-62
2021/05/10 22:40:14;;;;;;;6.70;2.40;;;11.90;95.30;;;;;;10328712;28;20696;-61
2021/05/10 22:45:24;;;;;;;14.88;3.00;;;11.90;95.30;;;;;;10327665;28;20049;-61
2021/05/10 22:50:33;;;;;;;11.98;2.95;;;11.90;95.70;;;;;;10322380;28;20763;-61
2021/05/10 23:06:40;;;;;;;9.45;2.25;;;11.90;95.70;;;;;;10325781;28;21639;-62
2021/05/10 23:12:12;;;;;;;11.80;2.97;;;11.90;95.70;;;;;;10326955;28;20092;-62
2021/05/10 23:17:13;;;;;;;11.43;3.20;;;11.90;96.80;;;;;;10328185;28;21147;-62
2021/05/10 23:22:15;;;;;;;5.68;2.50;;;11.90;96.70;;;;;;10327857;28;20059;-63
2021/05/10 23:27:17;;;;;;;13.80;2.90;;;11.90;96.50;;;;;;10325735;28;20181;-62
2021/05/10 23:32:19;;;;;;;8.17;2.00;;;11.90;96.50;;;;;;10327751;28;20060;-62
2021/05/10 23:37:20;;;;;;;11.55;3.03;;;11.80;96.50;;;;;;10326921;28;21590;-61
2021/05/10 23:42:22;;;;;;;16.15;2.70;;;11.90;96.50;;;;;;10324902;28;20750;-61
2021/05/10 23:47:24;;;;;;;9.38;3.10;;;11.80;96.60;;;;;;10323131;28;20048;-61
2021/05/10 23:52:25;;;;;;;9.00;3.00;;;11.90;96.80;;;;;;10328040;28;21297;-61
2021/05/10 23:57:27;;;;;;;12.15;3.63;;;11.80;97.00;;;;;;10325810;28;20052;-61
